createdAt,value
2019-03-04T00:01:53.135Z,0.80
2019-03-04T00:04:21.411Z,0.60
2019-03-04T00:06:49.661Z,0.70
2019-03-04T00:09:17.935Z,0.60
2019-03-04T00:11:46.196Z,0.60
2019-03-04T00:14:14.463Z,0.57
2019-03-04T00:16:42.713Z,0.60
2019-03-04T00:19:10.978Z,0.60
2019-03-04T00:21:39.238Z,0.83
2019-03-04T00:24:07.507Z,0.73
2019-03-04T00:26:37.394Z,0.70
2019-03-04T00:29:05.669Z,0.60
2019-03-04T00:31:33.923Z,0.70
2019-03-04T00:34:02.192Z,0.60
2019-03-04T00:36:30.451Z,0.60
2019-03-04T00:38:58.782Z,0.70
2019-03-04T00:41:27.393Z,0.73
2019-03-04T00:43:55.659Z,0.60
2019-03-04T00:46:23.987Z,0.67
2019-03-04T00:48:52.264Z,0.90
2019-03-04T00:51:20.599Z,0.60
2019-03-04T00:53:48.935Z,0.90
2019-03-04T00:56:17.194Z,0.70
2019-03-04T00:58:45.471Z,0.90
2019-03-04T01:01:13.731Z,0.70
2019-03-04T01:03:42.006Z,0.63
2019-03-04T01:06:10.268Z,0.70
2019-03-04T01:08:38.590Z,0.60
2019-03-04T01:11:06.874Z,0.57
2019-03-04T01:13:35.120Z,0.70
2019-03-04T01:16:03.382Z,0.70
2019-03-04T01:18:31.647Z,0.53
2019-03-04T01:20:59.915Z,0.70
2019-03-04T01:23:28.174Z,0.50
2019-03-04T01:25:58.070Z,0.87
2019-03-04T01:28:26.334Z,0.60
2019-03-04T01:30:54.767Z,0.70
2019-03-04T01:33:23.023Z,0.80
2019-03-04T01:35:51.662Z,0.70
2019-03-04T01:38:19.921Z,0.60
2019-03-04T01:40:48.197Z,0.53
2019-03-04T01:43:16.447Z,0.70
2019-03-04T01:45:44.711Z,0.93
2019-03-04T01:48:12.972Z,0.70
2019-03-04T01:50:41.247Z,0.70
2019-03-04T01:53:09.503Z,0.73
2019-03-04T01:55:37.855Z,0.60
2019-03-04T01:58:06.111Z,0.50
2019-03-04T02:00:34.388Z,0.60
2019-03-04T02:03:02.787Z,0.70
2019-03-04T02:05:31.051Z,0.40
2019-03-04T02:07:59.310Z,0.47
2019-03-04T02:10:27.580Z,0.60
2019-03-04T02:12:55.834Z,0.60
2019-03-04T02:15:24.159Z,0.60
2019-03-04T02:17:52.430Z,0.50
2019-03-04T02:20:20.760Z,0.53
2019-03-04T02:22:49.026Z,0.70
2019-03-04T02:25:39.611Z,0.40
2019-03-04T02:28:07.870Z,0.63
2019-03-04T02:30:36.127Z,0.70
2019-03-04T02:33:04.404Z,0.50
2019-03-04T02:35:32.674Z,0.80
2019-03-04T02:38:01.000Z,0.60
2019-03-04T02:40:29.583Z,1.23
2019-03-04T02:42:58.165Z,0.60
2019-03-04T02:45:26.430Z,0.80
2019-03-04T02:47:54.710Z,0.50
2019-03-04T02:50:23.035Z,0.50
2019-03-04T02:52:51.297Z,0.60
2019-03-04T02:55:19.560Z,0.50
2019-03-04T02:57:47.828Z,0.50
2019-03-04T03:00:17.826Z,0.60
2019-03-04T03:02:46.094Z,0.70
2019-03-04T03:05:14.349Z,0.70
2019-03-04T03:07:42.613Z,0.60
2019-03-04T03:10:15.170Z,0.70
2019-03-04T03:12:43.575Z,0.50
2019-03-04T03:15:13.440Z,0.83
2019-03-04T03:17:41.705Z,0.47
2019-03-04T03:20:13.694Z,0.40
2019-03-04T03:22:41.964Z,0.70
2019-03-04T03:25:17.195Z,0.57
2019-03-04T03:27:45.521Z,0.57
2019-03-04T03:30:16.615Z,0.57
2019-03-04T03:32:44.916Z,0.47
2019-03-04T03:35:13.229Z,0.70
2019-03-04T03:37:41.614Z,0.70
2019-03-04T03:40:12.424Z,0.60
2019-03-04T03:42:40.678Z,0.50
2019-03-04T03:45:09.786Z,0.67
2019-03-04T03:47:38.044Z,0.60
2019-03-04T03:50:11.379Z,0.60
2019-03-04T03:52:39.634Z,0.60
2019-03-04T03:55:09.938Z,0.70
2019-03-04T03:57:38.191Z,0.57
2019-03-04T04:00:25.571Z,0.70
2019-03-04T04:02:53.823Z,0.70
2019-03-04T04:05:22.088Z,0.60
2019-03-04T04:07:50.343Z,0.47
2019-03-04T04:10:19.462Z,0.50
2019-03-04T04:12:47.800Z,0.50
2019-03-04T04:15:17.168Z,0.93
2019-03-04T04:17:45.421Z,0.50
2019-03-04T04:20:13.955Z,0.30
2019-03-04T04:22:42.622Z,0.70
2019-03-04T04:25:11.849Z,0.63
2019-03-04T04:27:40.158Z,0.63
2019-03-04T04:30:11.639Z,0.40
2019-03-04T04:32:40.126Z,0.70
2019-03-04T04:35:08.566Z,0.70
2019-03-04T04:37:37.092Z,0.40
2019-03-04T04:40:08.488Z,0.50
2019-03-04T04:42:36.742Z,0.60
2019-03-04T04:45:06.718Z,0.50
2019-03-04T04:47:34.970Z,0.60
2019-03-04T04:50:05.235Z,0.60
2019-03-04T04:52:33.489Z,0.50
2019-03-04T04:55:01.749Z,0.50
2019-03-04T04:57:30.014Z,0.50
2019-03-04T04:59:58.265Z,0.50
2019-03-04T05:02:26.530Z,0.40
2019-03-04T05:04:54.786Z,0.50
2019-03-04T05:07:23.059Z,0.50
2019-03-04T05:09:51.305Z,0.50
2019-03-04T05:12:19.574Z,0.47
2019-03-04T05:14:47.827Z,0.53
2019-03-04T05:17:16.199Z,0.37
2019-03-04T05:19:44.452Z,0.50
2019-03-04T05:22:12.713Z,0.50
2019-03-04T05:24:40.971Z,0.47
2019-03-04T05:27:09.238Z,0.40
2019-03-04T05:29:37.493Z,0.43
2019-03-04T05:32:05.832Z,0.50
2019-03-04T05:34:34.086Z,0.40
2019-03-04T05:37:02.351Z,0.50
2019-03-04T05:39:30.606Z,0.40
2019-03-04T05:41:58.873Z,0.60
2019-03-04T05:44:27.128Z,0.60
2019-03-04T05:46:55.614Z,0.50
2019-03-04T05:49:23.866Z,0.40
2019-03-04T05:51:52.126Z,0.50
2019-03-04T05:54:20.395Z,0.70
2019-03-04T05:56:48.654Z,0.73
2019-03-04T05:59:19.955Z,0.70
2019-03-04T06:01:50.254Z,0.50
2019-03-04T06:04:18.526Z,0.40
2019-03-04T06:06:51.150Z,0.50
2019-03-04T06:09:19.413Z,0.40
2019-03-04T06:11:47.666Z,0.70
2019-03-04T06:14:15.937Z,0.57
2019-03-04T06:16:47.290Z,0.73
2019-03-04T06:19:14.698Z,0.60
2019-03-04T06:21:42.950Z,0.47
2019-03-04T06:24:11.218Z,0.50
2019-03-04T06:26:39.469Z,0.50
2019-03-04T06:29:07.801Z,0.50
2019-03-04T06:31:36.054Z,0.70
2019-03-04T06:34:04.336Z,0.73
2019-03-04T06:36:32.591Z,0.90
2019-03-04T06:39:00.858Z,1.00
2019-03-04T06:41:29.107Z,0.80
2019-03-04T06:43:57.379Z,1.27
2019-03-04T06:46:25.634Z,1.00
2019-03-04T06:48:53.898Z,1.00
2019-03-04T06:51:28.049Z,1.10
2019-03-04T06:54:05.411Z,1.03
2019-03-04T06:56:57.894Z,0.90
2019-03-04T06:59:51.437Z,0.90
2019-03-04T07:02:34.842Z,1.00
2019-03-04T07:05:24.578Z,1.10
2019-03-04T07:07:52.830Z,1.03
2019-03-04T07:10:21.218Z,0.90
2019-03-04T07:12:49.546Z,0.77
2019-03-04T07:15:18.131Z,1.13
2019-03-04T07:17:46.386Z,0.80
2019-03-04T07:20:19.387Z,0.93
2019-03-04T07:22:48.515Z,0.87
2019-03-04T07:25:16.987Z,1.80
2019-03-04T07:27:45.243Z,1.63
2019-03-04T07:30:18.470Z,1.40
2019-03-04T07:32:47.010Z,2.60
2019-03-04T07:35:15.604Z,3.03
2019-03-04T07:37:43.850Z,1.57
2019-03-04T07:40:17.450Z,2.37
2019-03-04T07:42:45.705Z,1.63
2019-03-04T07:45:13.970Z,3.07
2019-03-04T07:47:42.222Z,1.80
2019-03-04T07:50:11.054Z,2.13
2019-03-04T07:52:39.318Z,2.07
2019-03-04T07:55:08.122Z,2.27
2019-03-04T07:57:36.381Z,1.43
2019-03-04T08:00:12.099Z,1.73
2019-03-04T08:02:40.358Z,2.27
2019-03-04T08:05:10.867Z,1.80
2019-03-04T08:07:41.158Z,1.30
2019-03-04T08:10:38.394Z,1.83
2019-03-04T08:13:19.216Z,1.67
2019-03-04T08:15:47.496Z,1.63
2019-03-04T08:18:15.745Z,1.50
2019-03-04T08:20:44.011Z,1.67
2019-03-04T08:23:13.307Z,1.60
2019-03-04T08:25:41.622Z,1.67
2019-03-04T08:28:10.914Z,1.80
2019-03-04T08:30:39.178Z,1.33
2019-03-04T08:33:07.430Z,1.40
2019-03-04T08:35:35.774Z,1.73
2019-03-04T08:38:04.100Z,1.70
2019-03-04T08:40:32.363Z,1.10
2019-03-04T08:43:00.618Z,1.27
2019-03-04T08:45:28.954Z,1.20
2019-03-04T08:47:57.531Z,1.50
2019-03-04T08:50:25.798Z,1.23
2019-03-04T08:52:54.058Z,1.33
2019-03-04T08:55:22.310Z,1.30
2019-03-04T08:57:50.678Z,1.23
2019-03-04T09:00:25.154Z,1.63
2019-03-04T09:02:53.758Z,1.80
2019-03-04T09:05:22.059Z,1.70
2019-03-04T09:07:50.325Z,2.60
2019-03-04T09:10:24.358Z,1.90
2019-03-04T09:12:52.694Z,2.37
2019-03-04T09:15:20.946Z,2.83
2019-03-04T09:17:49.217Z,3.23
2019-03-04T09:20:18.419Z,2.50
2019-03-04T09:22:46.690Z,3.20
2019-03-04T09:25:30.505Z,2.83
2019-03-04T09:27:57.125Z,2.20
2019-03-04T09:30:25.387Z,2.67
2019-03-04T09:32:53.658Z,2.53
2019-03-04T09:35:21.914Z,2.50
2019-03-04T09:37:50.184Z,2.00
2019-03-04T09:40:22.611Z,2.10
2019-03-04T09:42:51.820Z,2.00
2019-03-04T09:45:20.077Z,2.83
2019-03-04T09:47:48.342Z,1.97
2019-03-04T09:50:26.934Z,2.63
2019-03-04T09:52:55.193Z,1.43
2019-03-04T09:55:23.718Z,2.20
2019-03-04T09:57:51.993Z,2.10
2019-03-04T10:00:31.930Z,1.87
2019-03-04T10:03:32.434Z,2.23
2019-03-04T10:06:26.513Z,2.03
2019-03-04T10:09:23.866Z,2.13
2019-03-04T10:12:01.376Z,1.60
2019-03-04T10:15:08.304Z,1.97
2019-03-04T10:17:52.755Z,1.67
2019-03-04T10:20:32.801Z,1.80
2019-03-04T10:23:28.554Z,2.17
2019-03-04T10:26:22.894Z,2.20
2019-03-04T10:28:55.410Z,1.70
2019-03-04T10:31:55.475Z,1.43
2019-03-04T10:34:45.342Z,1.40
2019-03-04T10:37:29.147Z,1.40
2019-03-04T10:40:29.186Z,1.60
2019-03-04T10:43:03.607Z,1.67
2019-03-04T10:45:47.196Z,1.70
2019-03-04T10:48:15.458Z,1.67
2019-03-04T10:50:43.710Z,1.97
2019-03-04T10:53:11.974Z,1.60
2019-03-04T10:55:42.276Z,1.47
2019-03-04T10:58:10.227Z,1.43
2019-03-04T11:00:38.487Z,1.37
2019-03-04T11:03:07.533Z,1.20
2019-03-04T11:05:35.778Z,1.80
2019-03-04T11:08:04.042Z,1.60
2019-03-04T11:10:32.295Z,1.10
2019-03-04T11:13:00.570Z,1.30
2019-03-04T11:15:28.899Z,1.23
2019-03-04T11:17:57.146Z,1.00
2019-03-04T11:20:25.409Z,1.40
2019-03-04T11:22:53.663Z,1.30
2019-03-04T11:25:21.929Z,1.23
2019-03-04T11:27:50.181Z,1.40
2019-03-04T11:30:26.322Z,1.20
2019-03-04T11:32:54.578Z,1.20
2019-03-04T11:35:22.844Z,1.20
2019-03-04T11:37:51.169Z,1.30
2019-03-04T11:40:24.330Z,1.37
2019-03-04T11:42:52.583Z,1.37
2019-03-04T11:45:21.186Z,1.50
2019-03-04T11:47:49.440Z,1.43
2019-03-04T11:50:17.701Z,1.77
2019-03-04T11:52:45.965Z,1.73
2019-03-04T11:55:19.887Z,1.10
2019-03-04T11:57:48.610Z,1.47
2019-03-04T12:00:32.385Z,1.97
2019-03-04T12:03:00.638Z,1.67
2019-03-04T12:05:28.902Z,1.70
2019-03-04T12:07:57.158Z,2.00
2019-03-04T12:10:25.426Z,1.90
2019-03-04T12:12:53.683Z,1.83
2019-03-04T12:15:22.117Z,1.73
2019-03-04T12:17:50.378Z,1.50
2019-03-04T12:20:18.809Z,1.60
2019-03-04T12:22:47.063Z,1.27
2019-03-04T12:25:19.398Z,1.60
2019-03-04T12:27:47.726Z,1.23
2019-03-04T12:30:23.199Z,2.23
2019-03-04T12:32:51.998Z,1.73
2019-03-04T12:35:20.335Z,1.60
2019-03-04T12:37:48.596Z,1.70
2019-03-04T12:40:20.970Z,1.43
2019-03-04T12:42:49.293Z,1.43
2019-03-04T12:45:22.986Z,1.23
2019-03-04T12:47:51.250Z,1.27
2019-03-04T12:50:33.204Z,1.17
2019-03-04T12:53:01.454Z,1.27
2019-03-04T12:55:29.730Z,1.17
2019-03-04T12:57:57.981Z,0.90
2019-03-04T13:00:30.113Z,1.30
2019-03-04T13:02:58.903Z,1.40
2019-03-04T13:05:27.175Z,1.30
2019-03-04T13:07:55.435Z,1.30
2019-03-04T13:10:23.753Z,1.10
2019-03-04T13:12:52.657Z,1.43
2019-03-04T13:15:23.622Z,1.50
2019-03-04T13:17:51.877Z,1.10
2019-03-04T13:20:25.877Z,1.43
2019-03-04T13:22:54.170Z,1.53
2019-03-04T13:25:22.427Z,1.00
2019-03-04T13:27:50.703Z,1.30
2019-03-04T13:30:27.154Z,1.40
2019-03-04T13:32:55.421Z,1.70
2019-03-04T13:35:30.662Z,1.47
2019-03-04T13:37:58.931Z,1.30
2019-03-04T13:40:28.126Z,1.67
2019-03-04T13:42:56.394Z,1.43
2019-03-04T13:45:24.645Z,1.60
2019-03-04T13:47:52.918Z,1.63
2019-03-04T13:50:31.033Z,1.30
2019-03-04T13:52:59.303Z,1.73
2019-03-04T13:55:27.736Z,1.37
2019-03-04T13:57:56.001Z,1.50
2019-03-04T14:00:26.595Z,1.77
2019-03-04T14:02:54.859Z,1.70
2019-03-04T14:05:26.085Z,2.30
2019-03-04T14:07:54.372Z,1.30
2019-03-04T14:10:28.425Z,1.17
2019-03-04T14:12:56.688Z,1.10
2019-03-04T14:15:39.433Z,1.27
2019-03-04T14:18:07.699Z,1.50
2019-03-04T14:20:35.949Z,1.13
2019-03-04T14:23:04.388Z,1.17
2019-03-04T14:25:32.653Z,2.07
2019-03-04T14:28:00.905Z,1.27
2019-03-04T14:30:29.158Z,1.60
2019-03-04T14:32:57.422Z,1.50
2019-03-04T14:35:25.676Z,1.40
2019-03-04T14:37:53.946Z,1.53
2019-03-04T14:40:23.619Z,1.30
2019-03-04T14:42:51.881Z,1.27
2019-03-04T14:45:22.239Z,1.40
2019-03-04T14:47:50.611Z,1.43
2019-03-04T14:50:20.098Z,0.90
2019-03-04T14:52:48.362Z,1.30
2019-03-04T14:55:24.914Z,1.63
2019-03-04T14:57:53.950Z,1.10
2019-03-04T15:00:32.902Z,1.57
2019-03-04T15:03:01.179Z,1.00
2019-03-04T15:05:29.417Z,1.17
2019-03-04T15:07:57.686Z,1.20
2019-03-04T15:10:25.938Z,1.17
2019-03-04T15:12:54.210Z,2.30
2019-03-04T15:15:24.117Z,1.00
2019-03-04T15:17:52.370Z,1.00
2019-03-04T15:20:23.134Z,1.30
2019-03-04T15:22:51.391Z,0.90
2019-03-04T15:25:22.465Z,1.20
2019-03-04T15:27:51.491Z,1.13
2019-03-04T15:30:19.753Z,1.03
2019-03-04T15:32:48.012Z,0.93
2019-03-04T15:35:16.278Z,0.90
2019-03-04T15:37:44.538Z,0.97
2019-03-04T15:40:14.654Z,0.93
2019-03-04T15:42:42.906Z,0.93
2019-03-04T15:45:12.786Z,1.00
2019-03-04T15:47:42.266Z,1.13
2019-03-04T15:50:11.370Z,1.47
2019-03-04T15:52:39.621Z,1.03
2019-03-04T15:55:10.986Z,1.20
2019-03-04T15:57:39.242Z,1.13
2019-03-04T16:00:12.842Z,1.43
2019-03-04T16:02:41.100Z,1.03
2019-03-04T16:05:11.603Z,1.10
2019-03-04T16:07:39.858Z,1.20
2019-03-04T16:10:14.160Z,1.10
2019-03-04T16:12:42.582Z,1.27
2019-03-04T16:15:13.888Z,1.20
2019-03-04T16:17:42.146Z,0.80
2019-03-04T16:20:15.961Z,1.00
2019-03-04T16:22:42.627Z,1.00
2019-03-04T16:25:11.730Z,0.83
2019-03-04T16:27:39.990Z,1.20
2019-03-04T16:30:14.295Z,1.00
2019-03-04T16:32:42.989Z,0.90
2019-03-04T16:35:11.267Z,1.27
2019-03-04T16:37:39.514Z,1.07
2019-03-04T16:40:13.887Z,0.90
2019-03-04T16:42:42.138Z,1.20
2019-03-04T16:45:13.507Z,0.90
2019-03-04T16:47:41.838Z,0.90
2019-03-04T16:50:15.390Z,1.00
2019-03-04T16:52:46.242Z,0.87
2019-03-04T16:55:15.798Z,1.13
2019-03-04T16:57:44.055Z,0.87
2019-03-04T17:00:17.845Z,1.17
2019-03-04T17:02:46.091Z,1.10
2019-03-04T17:05:18.457Z,1.00
2019-03-04T17:07:47.450Z,1.07
2019-03-04T17:10:18.362Z,1.00
2019-03-04T17:12:46.608Z,0.87
2019-03-04T17:15:22.067Z,0.93
2019-03-04T17:17:50.316Z,0.80
2019-03-04T17:20:18.917Z,1.00
2019-03-04T17:22:47.242Z,0.93
2019-03-04T17:25:22.895Z,0.77
2019-03-04T17:27:51.158Z,0.80
2019-03-04T17:30:20.461Z,0.70
2019-03-04T17:32:48.709Z,1.00
2019-03-04T17:35:21.642Z,0.60
2019-03-04T17:37:49.897Z,0.73
2019-03-04T17:40:19.927Z,1.00
2019-03-04T17:42:48.169Z,0.80
2019-03-04T17:45:21.362Z,0.83
2019-03-04T17:47:49.626Z,1.23
2019-03-04T17:50:33.349Z,1.30
2019-03-04T17:53:02.834Z,1.20
2019-03-04T17:55:31.090Z,1.30
2019-03-04T17:57:59.351Z,0.87
2019-03-04T18:00:27.930Z,1.30
2019-03-04T18:02:56.199Z,1.00
2019-03-04T18:05:24.450Z,1.43
2019-03-04T18:07:53.017Z,2.50
2019-03-04T18:10:21.267Z,1.47
2019-03-04T18:12:49.535Z,1.33
2019-03-04T18:15:28.410Z,1.30
2019-03-04T18:17:56.681Z,1.63
2019-03-04T18:20:34.007Z,1.40
2019-03-04T18:22:55.006Z,1.20
2019-03-04T18:25:44.602Z,0.90
2019-03-04T18:28:18.690Z,0.87
2019-03-04T18:30:53.098Z,0.90
2019-03-04T18:33:38.970Z,1.10
2019-03-04T18:36:16.581Z,1.00
2019-03-04T18:38:50.774Z,1.10
2019-03-04T18:41:28.086Z,0.90
2019-03-04T18:44:23.942Z,0.90
2019-03-04T18:47:07.370Z,1.10
2019-03-04T18:49:37.258Z,1.00
2019-03-04T18:52:05.529Z,0.90
2019-03-04T18:54:33.786Z,1.03
2019-03-04T18:57:02.050Z,0.90
2019-03-04T18:59:30.298Z,0.73
2019-03-04T19:01:58.775Z,1.17
2019-03-04T19:04:27.026Z,1.03
2019-03-04T19:06:55.278Z,0.80
2019-03-04T19:09:23.544Z,1.27
2019-03-04T19:11:51.798Z,0.70
2019-03-04T19:14:21.172Z,1.20
2019-03-04T19:16:49.766Z,1.33
2019-03-04T19:19:18.030Z,1.17
2019-03-04T19:21:46.290Z,0.90
2019-03-04T19:24:14.654Z,0.80
2019-03-04T19:26:42.901Z,1.07
2019-03-04T19:29:11.166Z,0.97
2019-03-04T19:31:39.422Z,1.13
2019-03-04T19:34:07.715Z,1.30
2019-03-04T19:36:35.966Z,1.00
2019-03-04T19:39:06.174Z,1.10
2019-03-04T19:41:34.506Z,1.17
2019-03-04T19:44:02.834Z,1.03
2019-03-04T19:46:31.090Z,1.07
2019-03-04T19:48:59.358Z,1.13
2019-03-04T19:51:27.617Z,1.10
2019-03-04T19:53:55.887Z,1.20
2019-03-04T19:56:26.073Z,1.20
2019-03-04T19:58:54.118Z,1.20
2019-03-04T20:01:22.374Z,0.90
2019-03-04T20:03:50.651Z,1.33
2019-03-04T20:06:18.906Z,1.43
2019-03-04T20:08:47.186Z,1.40
2019-03-04T20:11:15.454Z,1.77
2019-03-04T20:13:43.710Z,0.90
2019-03-04T20:16:11.973Z,1.73
2019-03-04T20:18:40.238Z,1.40
2019-03-04T20:21:08.555Z,1.30
2019-03-04T20:23:36.835Z,1.10
2019-03-04T20:26:05.093Z,1.30
2019-03-04T20:28:33.350Z,1.47
2019-03-04T20:31:01.614Z,1.13
2019-03-04T20:33:29.870Z,1.50
2019-03-04T20:35:58.176Z,1.30
2019-03-04T20:38:35.058Z,1.47
2019-03-04T20:41:03.331Z,1.30
2019-03-04T20:43:31.577Z,1.33
2019-03-04T20:45:59.842Z,1.20
2019-03-04T20:48:28.094Z,1.00
2019-03-04T20:50:56.363Z,1.03
2019-03-04T20:53:24.617Z,2.00
2019-03-04T20:55:52.882Z,2.07
2019-03-04T20:58:21.140Z,2.05
2019-03-04T21:00:49.402Z,1.90
2019-03-04T21:03:17.654Z,1.50
2019-03-04T21:05:45.915Z,1.33
2019-03-04T21:08:14.171Z,1.63
2019-03-04T21:10:42.455Z,2.07
2019-03-04T21:13:34.863Z,1.87
2019-03-04T21:15:54.191Z,1.80
2019-03-04T21:18:22.526Z,2.10
2019-03-04T21:20:50.786Z,1.80
2019-03-04T21:23:19.043Z,1.73
2019-03-04T21:25:56.935Z,1.53
2019-03-04T21:28:28.446Z,1.43
2019-03-04T21:30:59.965Z,1.40
2019-03-04T21:33:40.381Z,1.70
2019-03-04T21:36:17.451Z,1.50
2019-03-04T21:38:45.701Z,1.47
2019-03-04T21:41:22.806Z,1.97
2019-03-04T21:43:56.880Z,1.60
2019-03-04T21:46:49.944Z,2.00
2019-03-04T21:49:18.213Z,1.43
2019-03-04T21:51:49.797Z,1.57
2019-03-04T21:54:18.058Z,1.77
2019-03-04T21:56:58.737Z,1.70
2019-03-04T21:59:27.358Z,1.53
2019-03-04T22:02:07.706Z,1.47
2019-03-04T22:04:36.018Z,1.60
2019-03-04T22:07:04.299Z,1.50
2019-03-04T22:09:32.564Z,1.30
2019-03-04T22:12:00.851Z,1.10
2019-03-04T22:14:29.154Z,1.30
2019-03-04T22:16:57.409Z,1.40
2019-03-04T22:19:25.697Z,1.67
2019-03-04T22:21:53.938Z,1.30
2019-03-04T22:24:22.214Z,1.50
2019-03-04T22:26:50.462Z,1.50
2019-03-04T22:29:18.759Z,1.57
2019-03-04T22:31:47.336Z,1.20
2019-03-04T22:34:15.619Z,1.57
2019-03-04T22:36:43.928Z,1.50
2019-03-04T22:39:12.186Z,1.00
2019-03-04T22:41:40.458Z,1.30
2019-03-04T22:44:08.722Z,1.30
2019-03-04T22:46:37.349Z,1.33
2019-03-04T22:49:05.613Z,1.50
2019-03-04T22:51:33.877Z,1.23
2019-03-04T22:54:02.130Z,1.70
2019-03-04T22:56:30.406Z,1.47
2019-03-04T22:58:58.744Z,1.67
2019-03-04T23:01:30.682Z,1.37
2019-03-04T23:04:05.289Z,1.10
2019-03-04T23:06:54.954Z,1.57
2019-03-04T23:09:26.650Z,1.20
2019-03-04T23:12:04.066Z,1.33
2019-03-04T23:14:33.969Z,1.30
2019-03-04T23:17:02.562Z,1.33
2019-03-04T23:19:30.825Z,1.10
2019-03-04T23:21:59.159Z,1.40
2019-03-04T23:24:27.423Z,1.17
2019-03-04T23:26:55.686Z,1.10
2019-03-04T23:29:23.939Z,1.17
2019-03-04T23:31:52.206Z,1.20
2019-03-04T23:34:20.453Z,1.07
2019-03-04T23:36:48.717Z,1.10
2019-03-04T23:39:16.978Z,0.97
2019-03-04T23:41:45.257Z,1.10
2019-03-04T23:44:13.515Z,1.43
2019-03-04T23:46:41.781Z,1.50
2019-03-04T23:49:10.045Z,0.97
2019-03-04T23:51:38.323Z,1.30
2019-03-04T23:54:06.637Z,1.00
2019-03-04T23:56:34.902Z,1.30
2019-03-04T23:59:03.162Z,0.90
